Time;durP1;ratioP1;P1;durP2;ratioP2;P2;SDS_P1;SDS_P2;PMS_P1;PMS_P2;Temp;Humidity;BMP_temperature;BMP_pressure;BME280_temperature;BME280_humidity;BME280_pressure;Samples;Min_cycle;Max_cycle;Signal;HPM_P1;HPM_P2
2023/09/29 00:01:57;;;;;;;8.93;3.75;;;;;;;17.39;81.32;64798.03;5071245;28;20211;-53
2023/09/29 00:04:22;;;;;;;9.95;3.42;;;;;;;17.35;81.99;64790.53;5071779;28;20201;-53
2023/09/29 00:06:48;;;;;;;7.30;3.92;;;;;;;17.35;82.19;64790.53;5070845;28;20204;-53
2023/09/29 00:09:16;;;;;;;8.95;3.08;;;;;;;17.35;81.33;64793.63;5071321;28;20217;-54
2023/09/29 00:11:41;;;;;;;6.80;4.20;;;;;;;17.37;80.63;64797.84;5070870;28;20200;-56
2023/09/29 00:14:07;;;;;;;8.43;4.07;;;;;;;17.42;80.90;64803.91;5069731;28;20303;-53
2023/09/29 00:16:32;;;;;;;10.63;3.83;;;;;;;17.44;77.65;64806.09;5070887;28;20348;-54
2023/09/29 00:18:58;;;;;;;10.68;4.07;;;;;;;17.39;77.25;64797.50;5070938;28;20278;-54
2023/09/29 00:21:24;;;;;;;7.32;3.83;;;;;;;17.38;77.74;64796.38;5070777;28;20678;-54
2023/09/29 00:23:49;;;;;;;10.75;3.88;;;;;;;17.40;77.98;64801.13;5070649;28;20208;-51
2023/09/29 00:26:17;;;;;;;16.27;3.92;;;;;;;17.37;76.29;64795.28;5070661;28;20208;-53
2023/09/29 00:28:44;;;;;;;12.35;3.55;;;;;;;17.30;78.72;64790.66;5071102;28;20240;-54
2023/09/29 00:31:09;;;;;;;7.85;3.08;;;;;;;17.28;80.13;64787.91;5070701;28;20276;-55
2023/09/29 00:33:35;;;;;;;7.90;4.15;;;;;;;17.35;81.64;64791.06;5070866;28;20247;-55
2023/09/29 00:36:01;;;;;;;7.63;4.10;;;;;;;17.39;81.07;64797.50;5070401;28;20208;-55
2023/09/29 00:38:27;;;;;;;8.70;4.05;;;;;;;17.22;80.69;64781.31;5070489;28;20316;-54
2023/09/29 00:40:52;;;;;;;7.22;3.58;;;;;;;17.02;81.93;64756.72;5068509;28;20220;-53
2023/09/29 00:43:18;;;;;;;5.40;3.22;;;;;;;17.05;84.59;64762.59;5070438;28;20243;-54
2023/09/29 00:45:47;;;;;;;8.90;3.50;;;;;;;17.01;82.79;64758.72;5070369;28;20592;-54
2023/09/29 00:48:14;;;;;;;7.45;4.00;;;;;;;16.96;82.85;64752.66;5070414;28;20209;-55
2023/09/29 00:50:41;;;;;;;6.05;3.25;;;;;;;16.99;83.64;64756.50;5052560;28;20200;-55
2023/09/29 00:53:13;;;;;;;12.00;4.10;;;;;;;17.02;83.31;64759.81;5070453;28;20205;-54
2023/09/29 00:55:42;;;;;;;6.20;2.95;;;;;;;17.02;83.30;64759.81;5070433;28;20239;-55
2023/09/29 00:58:08;;;;;;;13.60;3.85;;;;;;;17.06;83.79;64761.69;5070241;28;20219;-58
2023/09/29 01:00:40;;;;;;;9.55;3.80;;;;;;;17.11;82.43;64767.19;5070297;28;20211;-57
2023/09/29 01:03:10;;;;;;;11.52;3.63;;;;;;;17.08;81.94;64760.78;5070284;28;20208;-55
2023/09/29 01:05:44;;;;;;;10.25;4.40;;;;;;;16.98;83.79;64749.78;5070342;28;20239;-55
2023/09/29 01:08:12;;;;;;;12.65;3.70;;;;;;;16.94;84.28;64750.47;5070198;28;20216;-57
2023/09/29 01:10:41;;;;;;;7.95;3.50;;;;;;;16.98;84.00;64752.31;5070020;28;20200;-55
2023/09/29 01:13:08;;;;;;;4.78;3.22;;;;;;;16.97;82.97;64751.22;5070228;28;20213;-53
2023/09/29 01:15:34;;;;;;;11.13;3.65;;;;;;;16.94;81.73;64750.47;5070089;28;20235;-55
2023/09/29 01:18:01;;;;;;;10.30;3.65;;;;;;;16.89;83.58;64742.94;5070081;28;20212;-56
2023/09/29 01:20:28;;;;;;;10.43;3.65;;;;;;;16.92;82.76;64746.25;5068879;28;20204;-55
2023/09/29 01:23:04;;;;;;;7.00;3.22;;;;;;;16.85;80.93;64738.00;5069999;28;20312;-55
2023/09/29 01:25:29;;;;;;;9.15;3.65;;;;;;;16.86;81.79;64739.09;5070014;28;20776;-51
2023/09/29 01:27:56;;;;;;;7.65;4.30;;;;;;;16.82;83.03;64734.69;5069960;28;20247;-52
2023/09/29 01:30:24;;;;;;;11.00;4.57;;;;;;;16.80;84.20;64733.06;5070127;28;20200;-51
2023/09/29 01:32:53;;;;;;;6.40;3.45;;;;;;;16.82;84.94;64734.69;5070077;28;20208;-50
2023/09/29 01:35:23;;;;;;;8.77;3.83;;;;;;;16.75;84.23;64728.09;5070138;28;20213;-52
2023/09/29 01:37:50;;;;;;;15.00;4.28;;;;;;;16.80;84.12;64735.59;5068456;28;20217;-52
2023/09/29 01:40:17;;;;;;;13.45;4.03;;;;;;;16.80;84.11;64733.06;5069775;28;20197;-51
2023/09/29 01:42:44;;;;;;;10.93;3.70;;;;;;;16.78;85.04;64733.41;5069813;28;20216;-50
2023/09/29 01:45:12;;;;;;;8.57;3.25;;;;;;;16.72;85.44;64727.31;5069660;28;20229;-52
2023/09/29 01:47:38;;;;;;;10.85;3.85;;;;;;;16.76;84.44;64731.75;5069585;28;20217;-54
2023/09/29 01:50:05;;;;;;;13.30;3.55;;;;;;;16.68;85.74;64725.47;5069758;28;20271;-53
2023/09/29 01:52:31;;;;;;;13.50;3.53;;;;;;;16.75;86.01;64730.06;5072371;28;20204;-52
2023/09/29 01:54:56;;;;;;;9.82;3.78;;;;;;;16.67;85.33;64718.72;5073409;28;20178;-53
2023/09/29 01:57:22;;;;;;;11.35;3.80;;;;;;;16.51;85.60;64704.22;5072971;28;20698;-54
2023/09/29 01:59:49;;;;;;;12.07;3.85;;;;;;;16.49;85.47;64696.34;5073340;28;20227;-54
2023/09/29 02:02:15;;;;;;;8.07;3.70;;;;;;;16.47;85.20;64696.69;5071575;28;20209;-51
2023/09/29 02:04:41;;;;;;;7.90;3.40;;;;;;;16.46;84.77;64696.13;5073179;28;20201;-56
2023/09/29 02:07:07;;;;;;;10.98;4.35;;;;;;;16.44;85.49;64699.00;5072900;28;20224;-52
2023/09/29 02:09:34;;;;;;;8.10;3.67;;;;;;;16.45;84.90;64695.03;5071499;28;20201;-55
2023/09/29 02:12:01;;;;;;;10.13;3.65;;;;;;;16.56;84.43;64709.69;5072739;28;20218;-52
2023/09/29 02:14:29;;;;;;;11.38;3.75;;;;;;;16.64;84.90;64715.44;5072799;28;20201;-52
2023/09/29 02:16:54;;;;;;;9.65;3.70;;;;;;;16.73;83.43;64727.88;5072655;28;20247;-54
2023/09/29 02:19:20;;;;;;;9.15;3.75;;;;;;;16.77;84.05;64732.28;5072832;28;20217;-53
2023/09/29 02:21:46;;;;;;;12.45;4.00;;;;;;;16.85;83.95;64740.56;5072589;28;20213;-54
2023/09/29 02:24:12;;;;;;;5.80;2.95;;;;;;;16.81;81.92;64734.13;5072931;28;20664;-55
2023/09/29 02:26:38;;;;;;;8.85;3.20;;;;;;;16.76;82.15;64726.66;5072814;28;20212;-54
2023/09/29 02:29:05;;;;;;;10.23;3.58;;;;;;;16.79;83.43;64735.03;5072778;28;20296;-54
2023/09/29 02:31:31;;;;;;;7.00;2.97;;;;;;;16.85;84.99;64741.09;5071198;28;20208;-55
2023/09/29 02:33:57;;;;;;;10.77;3.97;;;;;;;16.86;84.97;64739.09;5072614;28;20233;-55
2023/09/29 02:36:22;;;;;;;11.68;3.78;;;;;;;16.83;85.67;64738.88;5072313;28;20315;-53
2023/09/29 02:38:48;;;;;;;11.93;3.47;;;;;;;16.80;85.33;64735.59;5072378;28;20231;-54
2023/09/29 02:41:14;;;;;;;9.05;3.75;;;;;;;17.01;85.00;64753.09;5054235;28;20576;-54
2023/09/29 02:43:39;;;;;;;8.15;3.75;;;;;;;17.00;84.66;64755.06;5071091;28;20209;-55
2023/09/29 02:46:05;;;;;;;14.25;4.40;;;;;;;16.85;85.13;64738.53;5072354;28;20200;-54
2023/09/29 02:48:30;;;;;;;6.72;3.65;;;;;;;16.77;85.16;64730.28;5071030;28;20564;-55
2023/09/29 02:50:56;;;;;;;12.13;4.28;;;;;;;16.66;86.87;64717.63;5072396;28;20196;-55
2023/09/29 02:53:28;;;;;;;18.70;4.47;;;;;;;16.57;87.78;64710.81;5072367;28;20276;-54
2023/09/29 02:55:54;;;;;;;13.93;4.28;;;;;;;16.44;89.83;64693.94;5072234;28;20207;-55
2023/09/29 02:58:19;;;;;;;10.07;4.43;;;;;;;16.38;91.23;64689.88;5072155;28;20612;-55
2023/09/29 03:00:45;;;;;;;15.75;5.55;;;;;;;16.30;92.64;64675.97;5072017;28;20204;-54
2023/09/29 03:03:12;;;;;;;11.90;4.25;;;;;;;16.35;92.24;64684.03;5069854;28;20744;-56
2023/09/29 03:05:43;;;;;;;14.32;4.32;;;;;;;16.42;91.59;64689.19;5072052;28;20200;-55
2023/09/29 03:08:08;;;;;;;10.10;4.97;;;;;;;16.36;91.73;64690.22;5070981;28;20278;-56
2023/09/29 03:10:36;;;;;;;12.45;4.45;;;;;;;16.22;92.85;64669.19;5071923;28;20200;-56
2023/09/29 03:13:01;;;;;;;8.05;4.55;;;;;;;16.23;93.11;64670.25;5072056;28;20251;-55
2023/09/29 03:15:27;;;;;;;11.85;5.40;;;;;;;16.31;91.75;64681.63;5071823;28;20228;-55
2023/09/29 03:17:55;;;;;;;7.38;3.55;;;;;;;16.27;90.36;64674.66;5071747;28;20322;-55
2023/09/29 03:20:21;;;;;;;8.65;3.88;;;;;;;16.28;91.55;64676.31;5071619;28;20208;-54
2023/09/29 03:22:48;;;;;;;12.70;3.78;;;;;;;16.19;88.62;64665.84;5071834;28;20224;-54
2023/09/29 03:25:16;;;;;;;8.63;4.03;;;;;;;16.23;88.30;64673.38;5071901;28;20204;-54
2023/09/29 03:27:43;;;;;;;11.93;4.00;;;;;;;16.29;87.98;64679.97;5071577;28;20863;-55
2023/09/29 03:30:09;;;;;;;10.57;3.67;;;;;;;16.32;85.96;64680.19;5071465;28;20246;-54
2023/09/29 03:32:35;;;;;;;8.02;3.85;;;;;;;16.34;85.84;64682.91;5071439;28;20724;-54
2023/09/29 03:35:01;;;;;;;6.65;3.30;;;;;;;16.44;87.22;64695.94;5071609;28;20193;-55
2023/09/29 03:37:29;;;;;;;5.38;3.45;;;;;;;16.47;88.32;64699.78;5071193;28;20686;-54
2023/09/29 03:39:56;;;;;;;8.57;3.75;;;;;;;16.49;87.49;64699.47;5071458;28;20247;-55
2023/09/29 03:42:22;;;;;;;9.65;3.90;;;;;;;16.67;86.71;64719.28;5071230;28;20231;-55
2023/09/29 03:44:47;;;;;;;11.48;3.17;;;;;;;16.56;87.54;64707.16;5071402;28;20205;-54
2023/09/29 03:47:13;;;;;;;10.80;3.55;;;;;;;16.48;88.67;64700.88;5071199;28;20239;-54
2023/09/29 03:49:39;;;;;;;6.47;3.60;;;;;;;16.42;89.58;64691.72;5071912;28;20643;-53
2023/09/29 03:52:08;;;;;;;11.10;4.20;;;;;;;16.35;89.43;64686.56;5069965;28;20589;-53
2023/09/29 03:54:34;;;;;;;11.25;3.90;;;;;;;16.50;89.75;64700.03;5070269;28;20731;-54
2023/09/29 03:57:03;;;;;;;8.07;3.75;;;;;;;16.60;90.74;64711.03;5071106;28;20208;-53
2023/09/29 03:59:29;;;;;;;9.05;3.88;;;;;;;16.46;90.40;64696.13;5071331;28;20605;-54
2023/09/29 04:01:55;;;;;;;7.80;4.10;;;;;;;16.44;90.18;64696.47;5059894;22;20229;-54
2023/09/29 04:04:20;;;;;;;13.45;4.85;;;;;;;16.48;90.36;64700.88;5051162;28;20194;-53
2023/09/29 04:06:46;;;;;;;11.02;3.45;;;;;;;16.37;87.63;64683.69;5050809;28;20241;-53
2023/09/29 04:09:12;;;;;;;11.70;4.03;;;;;;;16.44;87.71;64693.38;5051074;28;20605;-54
2023/09/29 04:11:40;;;;;;;9.02;3.63;;;;;;;16.38;89.16;64691.88;5051239;28;20606;-52
2023/09/29 04:14:06;;;;;;;9.60;3.95;;;;;;;16.45;88.39;64691.94;5050324;28;20205;-51
2023/09/29 04:16:32;;;;;;;10.38;3.90;;;;;;;16.44;89.85;64690.84;5050785;28;20213;-51
2023/09/29 04:18:58;;;;;;;7.35;3.90;;;;;;;16.47;90.17;64696.69;5050958;28;20212;-54
2023/09/29 04:21:24;;;;;;;8.02;3.67;;;;;;;16.47;89.27;64697.25;5050720;28;20697;-54
2023/09/29 04:23:49;;;;;;;9.05;4.18;;;;;;;16.44;88.44;64693.94;5073094;22;20717;-50
2023/09/29 04:26:16;;;;;;;9.75;4.45;;;;;;;16.40;89.03;64689.00;5070671;28;20197;-51
2023/09/29 04:28:42;;;;;;;12.50;4.18;;;;;;;16.37;87.48;64686.22;5069215;28;20217;-51
2023/09/29 04:31:08;;;;;;;7.50;3.95;;;;;;;16.36;85.57;64685.13;5070477;28;20213;-51
2023/09/29 04:33:33;;;;;;;8.05;4.50;;;;;;;16.41;85.07;64688.09;5071053;28;20558;-52
2023/09/29 04:35:59;;;;;;;9.68;3.80;;;;;;;16.46;88.16;64695.59;5070510;28;20658;-52
2023/09/29 04:38:24;;;;;;;8.93;4.38;;;;;;;16.28;87.47;64675.78;5070724;28;20599;-51
2023/09/29 04:40:50;;;;;;;11.73;4.47;;;;;;;16.30;87.29;64680.53;5052472;28;20209;-51
2023/09/29 04:43:16;;;;;;;12.52;5.47;;;;;;;16.35;87.93;64683.47;5070731;28;20204;-50
2023/09/29 04:45:43;;;;;;;12.50;4.85;;;;;;;16.31;89.02;64682.16;5069132;28;20208;-51
2023/09/29 04:48:09;;;;;;;11.90;4.72;;;;;;;16.52;94.63;64705.28;5068836;28;20626;-51
2023/09/29 04:50:34;;;;;;;10.35;5.18;;;;;;;16.44;92.55;64693.94;5068961;28;20686;-51
2023/09/29 04:53:00;;;;;;;10.05;5.05;;;;;;;16.39;93.05;64690.41;5070276;28;20228;-51
2023/09/29 04:55:28;;;;;;;15.88;5.47;;;;;;;16.32;92.60;64677.63;5070356;28;20205;-51
2023/09/29 04:57:54;;;;;;;13.13;4.88;;;;;;;16.23;93.09;64673.38;5070416;28;20224;-57
2023/09/29 05:00:21;;;;;;;14.02;5.15;;;;;;;16.13;94.24;64659.81;5070257;28;20262;-50
2023/09/29 05:02:46;;;;;;;13.13;5.60;;;;;;;16.39;91.57;64690.97;5070078;28;20212;-54
2023/09/29 05:05:12;;;;;;;13.98;4.97;;;;;;;16.34;90.24;64684.94;5070335;28;20196;-55
2023/09/29 05:07:38;;;;;;;7.80;5.10;;;;;;;16.27;90.88;64677.75;5068743;28;20224;-51
2023/09/29 05:10:05;;;;;;;12.80;4.97;;;;;;;16.24;90.94;64673.91;5069072;28;20207;-51
2023/09/29 05:12:32;;;;;;;14.73;5.35;;;;;;;16.17;91.21;64663.66;5070067;28;20209;-51
2023/09/29 05:14:57;;;;;;;12.45;5.25;;;;;;;15.97;89.02;64644.75;5070184;28;20204;-51
2023/09/29 05:17:23;;;;;;;12.63;5.18;;;;;;;15.69;90.67;64613.94;5070025;28;20220;-52
2023/09/29 05:19:48;;;;;;;9.57;4.93;;;;;;;15.74;90.17;64619.44;5070162;28;20193;-53
2023/09/29 05:22:14;;;;;;;9.65;4.25;;;;;;;15.86;89.32;64630.09;5070165;28;20212;-55
2023/09/29 05:24:39;;;;;;;14.57;5.53;;;;;;;15.93;88.75;64638.38;5068723;28;20608;-54
2023/09/29 05:27:05;;;;;;;16.63;4.93;;;;;;;15.68;89.21;64612.81;5072492;28;20220;-54
2023/09/29 05:29:31;;;;;;;17.23;4.80;;;;;;;15.68;90.70;64610.28;5073636;28;20205;-54
2023/09/29 05:31:56;;;;;;;10.52;4.93;;;;;;;15.81;91.44;64630.25;5073451;28;20262;-51
2023/09/29 05:34:22;;;;;;;10.93;5.90;;;;;;;16.04;88.92;64649.38;5073780;28;20189;-52
2023/09/29 05:36:48;;;;;;;10.77;5.22;;;;;;;15.96;89.17;64641.09;5073369;28;20649;-51
2023/09/29 05:39:14;;;;;;;14.65;5.43;;;;;;;16.11;88.10;64657.06;5073331;28;20212;-50
2023/09/29 05:41:40;;;;;;;13.52;5.90;;;;;;;16.12;89.14;64658.69;5071977;28;20295;-53
2023/09/29 05:44:06;;;;;;;10.65;5.60;;;;;;;16.16;89.53;64667.66;5072593;28;20197;-50
2023/09/29 05:46:31;;;;;;;14.90;5.32;;;;;;;16.16;89.01;64665.66;5071103;28;20212;-51
2023/09/29 05:48:57;;;;;;;14.57;5.45;;;;;;;16.11;90.50;64657.63;5072125;28;20188;-52
2023/09/29 05:51:23;;;;;;;14.13;6.10;;;;;;;16.28;89.84;64678.84;5073630;28;20208;-51
2023/09/29 05:53:49;;;;;;;11.38;6.00;;;;;;;16.24;89.94;64674.44;5073478;28;20216;-52
2023/09/29 05:56:16;;;;;;;13.82;6.07;;;;;;;16.44;88.81;64693.38;5071682;28;20185;-52
2023/09/29 05:58:41;;;;;;;15.77;5.53;;;;;;;16.49;89.45;64701.44;5071596;28;20693;-52
2023/09/29 06:01:11;;;;;;;16.98;5.75;;;;;;;16.51;89.83;64701.66;5072595;28;20193;-50
2023/09/29 06:03:38;;;;;;;20.90;5.82;;;;;;;16.55;88.37;64708.63;5073072;28;20231;-52
2023/09/29 06:06:12;;;;;;;20.40;6.13;;;;;;;16.54;88.45;64707.50;5071834;28;20702;-51
2023/09/29 06:08:40;;;;;;;17.02;6.75;;;;;;;16.83;95.77;64735.81;5072956;28;20204;-51
2023/09/29 06:11:05;;;;;;;23.23;7.32;;;;;;;16.93;87.89;64749.38;5073022;28;20205;-51
2023/09/29 06:13:32;;;;;;;17.25;7.65;;;;;;;16.98;86.26;64757.41;5072925;28;20645;-52
2023/09/29 06:15:58;;;;;;;20.67;7.05;;;;;;;16.55;86.41;64705.50;5072761;28;20196;-51
2023/09/29 06:18:24;;;;;;;13.00;6.88;;;;;;;16.42;87.46;64693.72;5072874;28;20216;-52
2023/09/29 06:20:50;;;;;;;13.85;6.93;;;;;;;16.47;86.42;64699.22;5072891;28;20262;-53
2023/09/29 06:23:16;;;;;;;13.18;7.05;;;;;;;16.53;86.36;64705.84;5071634;28;20233;-52
2023/09/29 06:25:41;;;;;;;16.35;6.97;;;;;;;16.60;86.53;64711.56;5072885;28;20223;-51
2023/09/29 06:28:07;;;;;;;18.77;6.70;;;;;;;16.88;84.80;64743.84;5072493;28;20229;-56
2023/09/29 06:30:32;;;;;;;16.35;6.55;;;;;;;17.10;83.47;64768.09;5072613;28;20254;-53
2023/09/29 06:32:58;;;;;;;16.02;6.80;;;;;;;16.91;83.53;64744.63;5072462;28;20694;-51
2023/09/29 06:35:24;;;;;;;16.92;7.20;;;;;;;17.01;83.40;64755.63;5071157;28;20208;-52
2023/09/29 06:37:51;;;;;;;21.45;7.38;;;;;;;17.25;81.78;64782.06;5071726;28;20572;-52
2023/09/29 06:40:17;;;;;;;12.60;6.20;;;;;;;17.17;82.01;64773.25;5072416;28;20738;-52
2023/09/29 06:42:43;;;;;;;16.17;6.47;;;;;;;17.31;81.50;64791.75;5072532;28;20209;-51
2023/09/29 06:45:09;;;;;;;20.35;7.03;;;;;;;17.47;80.46;64806.31;5072456;28;20276;-51
2023/09/29 06:47:35;;;;;;;15.60;6.53;;;;;;;17.57;80.72;64817.34;5072597;28;20209;-51
2023/09/29 06:50:01;;;;;;;19.63;5.72;;;;;;;17.55;79.26;64815.69;5072461;28;20575;-52
2023/09/29 06:52:29;;;;;;;17.83;6.15;;;;;;;17.67;79.04;64830.91;5071155;28;20209;-52
2023/09/29 06:54:54;;;;;;;13.02;6.35;;;;;;;17.78;77.10;64837.38;5072386;28;20196;-52
2023/09/29 06:57:20;;;;;;;22.25;6.15;;;;;;;17.89;78.50;64854.63;5072020;28;20213;-51
2023/09/29 06:59:46;;;;;;;16.23;5.90;;;;;;;17.81;76.94;64845.81;5072120;28;20208;-51
2023/09/29 07:02:12;;;;;;;17.65;6.43;;;;;;;18.07;76.27;64874.47;5072076;28;20226;-51
2023/09/29 07:04:37;;;;;;;13.68;5.63;;;;;;;18.16;72.71;64884.41;5072248;28;20201;-52
2023/09/29 07:07:03;;;;;;;11.02;5.70;;;;;;;18.52;72.94;64921.56;5072009;28;20303;-51
2023/09/29 07:09:31;;;;;;;17.20;5.60;;;;;;;18.62;73.74;64932.59;5072134;28;20206;-52
2023/09/29 07:11:58;;;;;;;14.55;5.50;;;;;;;19.03;69.65;64977.81;5070318;28;20209;-50
2023/09/29 07:14:23;;;;;;;13.40;5.95;;;;;;;19.21;68.75;64997.69;5072016;28;20223;-51
2023/09/29 07:16:52;;;;;;;14.60;5.88;;;;;;;19.19;69.92;64995.50;5071965;28;20701;-51
2023/09/29 07:19:18;;;;;;;15.18;6.38;;;;;;;19.36;71.26;65013.72;5071890;28;20217;-51
2023/09/29 07:21:43;;;;;;;17.00;6.00;;;;;;;19.38;70.73;65015.94;5072065;28;20207;-51
2023/09/29 07:24:09;;;;;;;24.17;6.40;;;;;;;19.47;69.64;65022.78;5070622;28;20208;-50
2023/09/29 07:26:35;;;;;;;17.52;5.88;;;;;;;19.59;69.16;65039.13;5071787;28;20624;-54
2023/09/29 07:29:01;;;;;;;13.88;5.60;;;;;;;19.60;66.39;65037.09;5071773;28;20616;-51
2023/09/29 07:31:38;;;;;;;10.13;4.50;;;;;;;19.89;64.57;65071.69;5071789;28;20201;-50
2023/09/29 07:34:04;;;;;;;10.98;5.80;;;;;;;19.91;63.68;65071.34;5071804;28;20212;-51
2023/09/29 07:36:33;;;;;;;11.05;5.00;;;;;;;19.81;63.06;65063.44;5070337;28;20200;-56
2023/09/29 07:38:59;;;;;;;12.82;5.20;;;;;;;20.13;62.64;65100.22;5071531;28;20345;-52
2023/09/29 07:41:25;;;;;;;11.38;4.80;;;;;;;19.99;59.02;65083.31;5053630;28;20685;-51
2023/09/29 07:43:51;;;;;;;11.00;5.45;;;;;;;20.19;59.70;65104.28;5071541;28;20235;-52
2023/09/29 07:46:16;;;;;;;11.88;5.07;;;;;;;20.24;60.65;65107.28;5071442;28;20690;-52
2023/09/29 07:48:42;;;;;;;12.05;4.97;;;;;;;20.34;60.69;65118.34;5071380;28;20204;-53
2023/09/29 07:51:08;;;;;;;15.38;5.32;;;;;;;20.19;58.90;65101.72;5071467;28;20196;-54
2023/09/29 07:53:34;;;;;;;11.68;4.03;;;;;;;20.22;59.30;65105.59;5071250;28;20226;-51
2023/09/29 07:55:59;;;;;;;9.98;4.00;;;;;;;20.39;58.04;65126.41;5071309;28;20192;-51
2023/09/29 07:58:25;;;;;;;14.30;4.45;;;;;;;20.52;55.83;65138.22;5071467;28;20592;-52
2023/09/29 08:00:51;;;;;;;9.93;4.70;;;;;;;20.72;56.35;65160.88;5071669;28;20269;-52
2023/09/29 08:03:16;;;;;;;13.80;6.45;;;;;;;20.68;57.93;65153.34;5071564;28;20274;-56
2023/09/29 08:05:42;;;;;;;13.95;5.43;;;;;;;20.61;56.79;65148.16;5071354;28;20696;-52
2023/09/29 08:08:08;;;;;;;12.85;4.63;;;;;;;20.75;55.07;65163.63;5071029;28;20642;-51
2023/09/29 08:10:34;;;;;;;14.38;4.95;;;;;;;20.83;54.94;65172.47;5071074;28;20281;-53
2023/09/29 08:12:59;;;;;;;12.55;6.20;;;;;;;21.02;54.02;65192.94;5070874;28;20256;-51
2023/09/29 08:15:25;;;;;;;14.30;5.38;;;;;;;21.14;53.11;65206.78;5070954;28;20205;-51
2023/09/29 08:17:52;;;;;;;12.48;3.92;;;;;;;21.14;50.89;65211.91;5071158;28;20611;-54
2023/09/29 08:20:18;;;;;;;9.38;3.38;;;;;;;21.18;46.46;65210.63;5069897;28;20200;-52
2023/09/29 08:22:44;;;;;;;15.15;4.05;;;;;;;21.28;46.42;65221.69;5070871;28;20243;-51
2023/09/29 08:25:11;;;;;;;9.52;3.38;;;;;;;21.39;45.21;65233.88;5070976;28;20208;-52
2023/09/29 08:27:37;;;;;;;7.82;2.88;;;;;;;21.45;45.70;65241.03;5070732;28;20681;-51
2023/09/29 08:30:05;;;;;;;8.35;2.70;;;;;;;22.18;45.53;65323.31;5070914;28;20204;-50
2023/09/29 08:32:31;;;;;;;8.18;3.10;;;;;;;22.71;43.35;65376.84;5070367;28;20224;-52
2023/09/29 08:34:56;;;;;;;12.00;3.42;;;;;;;22.37;43.00;65341.75;5070928;28;20283;-52
2023/09/29 08:37:24;;;;;;;9.13;3.10;;;;;;;22.57;43.30;65363.91;5070332;28;20247;-51
2023/09/29 08:39:50;;;;;;;8.65;2.90;;;;;;;22.15;40.79;65317.41;5070593;28;20197;-51
2023/09/29 08:42:38;;;;;;;7.53;2.92;;;;;;;21.74;41.82;65272.56;5070683;28;20284;-51
2023/09/29 08:45:12;;;;;;;5.32;2.53;;;;;;;21.60;41.51;65260.22;5070645;28;20204;-55
2023/09/29 08:47:40;;;;;;;9.27;2.63;;;;;;;21.64;42.02;65264.06;5070758;28;20265;-55
2023/09/29 08:50:09;;;;;;;6.95;2.92;;;;;;;21.86;44.45;65285.31;5070402;28;20686;-55
2023/09/29 08:52:35;;;;;;;9.95;3.00;;;;;;;21.93;43.56;65293.06;5070859;28;20217;-51
2023/09/29 08:55:04;;;;;;;5.97;2.53;;;;;;;22.03;44.02;65304.69;5070661;28;20188;-52
2023/09/29 08:57:30;;;;;;;5.18;2.55;;;;;;;22.14;45.47;65313.75;5070437;28;20220;-52
2023/09/29 08:59:58;;;;;;;7.60;2.65;;;;;;;22.15;45.79;65314.84;5070410;28;20288;-51
2023/09/29 09:02:24;;;;;;;3.78;2.40;;;;;;;22.52;44.47;65358.91;5069756;28;20252;-52
2023/09/29 09:04:50;;;;;;;5.78;2.95;;;;;;;22.73;41.69;65381.09;5070384;28;20196;-51
2023/09/29 09:07:17;;;;;;;7.60;3.08;;;;;;;23.20;42.96;65436.28;5070337;28;20227;-51
2023/09/29 09:09:52;;;;;;;9.40;2.63;;;;;;;23.26;43.53;65442.94;5070376;28;20193;-54
2023/09/29 09:12:18;;;;;;;7.80;3.03;;;;;;;23.39;43.28;65454.22;5070290;28;20216;-51
2023/09/29 09:14:47;;;;;;;7.57;3.30;;;;;;;23.06;43.65;65418.19;5070084;28;20241;-51
2023/09/29 09:17:13;;;;;;;6.88;2.55;;;;;;;23.17;41.60;65432.94;5070047;28;20308;-51
2023/09/29 09:19:45;;;;;;;9.65;3.47;;;;;;;23.03;38.42;65414.88;5070341;28;20634;-52
2023/09/29 09:22:16;;;;;;;8.85;3.17;;;;;;;23.04;38.46;65415.97;5069709;28;20601;-52
2023/09/29 09:24:42;;;;;;;6.35;3.22;;;;;;;22.99;39.06;65413.00;5069926;28;20204;-52
2023/09/29 09:27:08;;;;;;;6.50;3.05;;;;;;;22.97;41.98;65410.78;5070089;28;20224;-52
2023/09/29 09:29:41;;;;;;;7.07;2.90;;;;;;;22.92;42.50;65399.56;5069916;28;20204;-51
2023/09/29 09:32:07;;;;;;;5.88;3.13;;;;;;;22.92;38.46;65400.13;5068748;28;20247;-51
2023/09/29 09:34:37;;;;;;;7.45;2.75;;;;;;;22.66;37.84;65373.91;5069844;28;20204;-53
2023/09/29 09:37:05;;;;;;;9.93;2.47;;;;;;;22.52;38.17;65363.53;5068612;28;20223;-51
2023/09/29 09:39:33;;;;;;;5.30;2.72;;;;;;;22.35;38.54;65342.13;5070272;28;20189;-51
2023/09/29 09:42:04;;;;;;;7.53;3.20;;;;;;;22.23;39.01;65326.28;5070025;28;20581;-56
2023/09/29 09:44:32;;;;;;;9.93;2.33;;;;;;;22.36;38.64;65343.25;5069700;28;20193;-54
2023/09/29 09:47:03;;;;;;;8.75;2.90;;;;;;;22.73;39.99;65381.09;5069223;28;20255;-52
2023/09/29 09:49:38;;;;;;;10.40;3.28;;;;;;;23.11;38.98;65423.16;5067891;28;20209;-52
2023/09/29 09:52:08;;;;;;;12.82;3.05;;;;;;;23.41;38.21;65456.44;5068399;28;20213;-52
2023/09/29 09:54:55;;;;;;;10.10;3.45;;;;;;;23.53;36.51;65469.19;5069744;28;20219;-50
2023/09/29 09:57:33;;;;;;;13.13;3.47;;;;;;;23.52;36.81;65468.06;5069746;28;20254;-53
2023/09/29 10:00:06;;;;;;;8.35;3.00;;;;;;;23.46;38.10;65461.41;5069764;28;20201;-52
2023/09/29 10:02:35;;;;;;;9.68;3.55;;;;;;;23.51;36.92;65467.53;5069562;28;20221;-52
2023/09/29 10:05:03;;;;;;;9.00;3.42;;;;;;;23.56;43.31;65473.06;5069462;28;20215;-52
2023/09/29 10:07:31;;;;;;;7.72;4.22;;;;;;;23.55;40.16;65471.41;5069072;28;20312;-52
2023/09/29 10:09:57;;;;;;;8.10;3.13;;;;;;;23.41;37.25;65455.88;5069316;28;20204;-52
2023/09/29 10:12:27;;;;;;;9.23;3.28;;;;;;;23.41;37.65;65456.44;5068772;28;20224;-52
2023/09/29 10:14:53;;;;;;;8.70;3.20;;;;;;;23.42;38.29;65454.41;5072018;28;20200;-53
2023/09/29 10:17:20;;;;;;;14.55;3.42;;;;;;;23.51;38.64;65466.97;5072553;28;20680;-52
2023/09/29 10:19:51;;;;;;;6.22;2.70;;;;;;;23.66;37.33;65484.13;5070868;28;20659;-53
2023/09/29 10:22:24;;;;;;;7.07;2.83;;;;;;;23.37;37.48;65449.44;5072462;28;20213;-52
2023/09/29 10:24:57;;;;;;;15.80;3.08;;;;;;;23.48;36.76;65464.19;5072951;28;20201;-53
2023/09/29 10:27:32;;;;;;;6.47;3.53;;;;;;;23.30;37.45;65441.66;5071142;28;20217;-52
2023/09/29 10:30:15;;;;;;;9.10;3.15;;;;;;;23.52;37.13;65468.63;5072612;28;20192;-52
2023/09/29 10:33:01;;;;;;;8.30;3.05;;;;;;;23.91;36.20;65511.84;5071508;28;20216;-52
2023/09/29 10:35:27;;;;;;;7.40;2.80;;;;;;;23.60;36.69;65477.50;5071353;28;20208;-52
2023/09/29 10:37:55;;;;;;;7.13;3.20;;;;;;;23.44;36.56;65459.19;5072737;28;20217;-53
2023/09/29 10:40:25;;;;;;;7.70;3.22;;;;;;;23.84;38.46;65503.53;5072429;28;20192;-51
2023/09/29 10:42:56;;;;;;;10.50;3.78;;;;;;;23.41;36.96;65456.44;5072972;28;20227;-52
2023/09/29 10:45:31;;;;;;;5.72;3.35;;;;;;;24.09;37.51;65531.28;5071064;28;20201;-53
2023/09/29 10:48:07;;;;;;;6.53;3.80;;;;;;;24.63;37.12;65586.00;5080193;22;20227;-53
2023/09/29 10:50:43;;;;;;;8.80;3.38;;;;;;;25.26;36.48;65654.81;5092359;28;20191;-51
2023/09/29 10:53:11;;;;;;;7.57;3.60;;;;;;;25.45;35.51;65679.03;5092464;28;20211;-52
2023/09/29 10:55:47;;;;;;;6.90;3.42;;;;;;;25.86;34.17;65726.03;5092408;28;20179;-52
2023/09/29 10:58:14;;;;;;;12.73;3.05;;;;;;;26.06;33.79;65748.78;5074349;28;20397;-51
2023/09/29 11:00:51;;;;;;;8.02;3.28;;;;;;;26.06;32.07;65746.22;5092622;28;20275;-54
2023/09/29 11:03:26;;;;;;;6.93;3.33;;;;;;;26.59;33.94;65805.13;5092374;28;20230;-52
2023/09/29 11:06:08;;;;;;;7.18;3.03;;;;;;;26.83;32.06;65830.69;5074336;28;20203;-51
2023/09/29 11:08:42;;;;;;;3.88;3.30;;;;;;;26.98;33.65;65847.94;5074172;28;20639;-51
2023/09/29 11:11:09;;;;;;;10.63;3.25;;;;;;;26.90;32.54;65839.03;5092201;28;20339;-51
2023/09/29 11:13:37;;;;;;;9.18;4.00;;;;;;;27.07;31.84;65857.91;5092158;28;20198;-52
2023/09/29 11:16:14;;;;;;;10.35;3.60;;;;;;;27.01;31.69;65853.28;5092414;28;20196;-61
2023/09/29 11:18:41;;;;;;;7.93;3.88;;;;;;;27.42;32.48;65894.25;5092232;28;20208;-52
2023/09/29 11:21:10;;;;;;;8.02;3.70;;;;;;;27.46;31.67;65900.75;5092105;28;20287;-53
2023/09/29 11:23:49;;;;;;;8.88;3.38;;;;;;;27.21;31.24;65870.34;5073316;28;20189;-54
2023/09/29 11:26:16;;;;;;;6.88;3.40;;;;;;;27.58;31.48;65914.09;5091988;28;20219;-53
2023/09/29 11:28:47;;;;;;;7.45;3.03;;;;;;;27.88;31.11;65944.28;5091897;28;20228;-52
2023/09/29 11:31:16;;;;;;;9.27;3.63;;;;;;;27.80;31.06;65938.56;5073709;28;20200;-55